Ridgeview, WV (25169)

1:26 PM EST en Diciembre 22, 2014 (GMT -0500)
SOD | Change Station
CLOSE
Current Station
Estación meteorológica personal
Location: Sod, WV
Altura: 771 ft
Estaciones meteorológicas cercanas

Alt 771 ft 38.27 °N, 81.89 °W | Updated 9 seconds ago

Nublado
Nublado
55.1 ° F
Sensación térmica 55.1 ° F
N
2.0
Viento Variable Viento desde SSE
Gusts 7.0 mph

Hoy
Alta -- | Baja -- ° F
--% Posibilidad de precipitaciones
Ayer
Alta -- | Baja -- ° F
Precip. -- pul
7:40 AM 5:11 PM
Luna nueva, 1% visible
Presión 29.99 pul
Visibilidad 10.0 Millas
Nubes Muy nublado 5000 ft
Muy nublado 6500 ft
Punto de rocío 40 ° F
Humedad 56%
Precipitaciones 0.00 pul
Espesor de la nieve No disponible.
UV 1 de una escala de 12
Polen .10 de una escala de 12
Calidad del aire No disponible.
Flu Activity No disponible.
METAR KCRW 221754Z 11009KT 10SM BKN050 BKN065 11/02 A2997 RMK AO2 SLP153 T01060022 10106 20000 58031

More Conditions Fewer Conditions

Presión 29.99 pul
Visibilidad 10.0 Millas
Nubes Muy nublado 5000 ft
Muy nublado 6500 ft
Punto de rocío 40 ° F
Humedad 56%
Precipitaciones 0.00 pul
Espesor de la nieve No disponible.
UV 1 de una escala de 12
Polen .10 de una escala de 12
Calidad del aire No disponible.
Flu Activity No disponible.
METAR KCRW 221754Z 11009KT 10SM BKN050 BKN065 11/02 A2997 RMK AO2 SLP153 T01060022 10106 20000 58031

More Conditions Fewer Conditions

10-Day Weather Forecast

Almanac

Astronomía

Dec. 22, 2014 Salida Puesta
Hora real
Crepúsculo civil
Crepúsculo náutico
Crepúsculo astronómico
Luna
Horas de luz
Horas de luz
Tomorrow will be .
, % of the Moon is Illuminated

Extremos de hoy

Máximos del estado Bajos del estado

Community

WunderPhotos

Upload Photos

1,779,663 ¡fotos cargadas!

WunderBlogs® & News

Nearby

Calidad del aire

  Calidad del aire Índice AQ Contaminante
Not available.

Grosos de nieve

Estación Profundido Altura

Actividad de terremotos

Ciudad Distance Mag. Tiempo y dato
Magnitud mínima muestra es 2,5.

Temperaturas de aguas costeras

Lugar Temperatura

Estaciones meteorológicas cercanas